sensor_id;sensor_type;location;lat;lon;timestamp;P1;P2;P0
44933;PMS3003;30667;43.614;1.442;2023-05-07T00:01:37;10.00;10.00;5.50
44933;PMS3003;30667;43.614;1.442;2023-05-07T00:04:03;12.00;11.25;6.00
44933;PMS3003;30667;43.614;1.442;2023-05-07T00:06:28;12.25;11.25;5.75
44933;PMS3003;30667;43.614;1.442;2023-05-07T00:08:55;10.20;9.20;5.80
44933;PMS3003;30667;43.614;1.442;2023-05-07T00:11:21;10.80;10.20;6.20
44933;PMS3003;30667;43.614;1.442;2023-05-07T00:13:47;14.25;11.00;6.00
44933;PMS3003;30667;43.614;1.442;2023-05-07T00:16:13;11.00;10.40;6.00
44933;PMS3003;30667;43.614;1.442;2023-05-07T00:18:39;12.50;11.00;7.00
44933;PMS3003;30667;43.614;1.442;2023-05-07T00:21:04;10.75;10.50;6.00
44933;PMS3003;30667;43.614;1.442;2023-05-07T00:23:30;10.75;10.00;5.50
44933;PMS3003;30667;43.614;1.442;2023-05-07T00:25:55;13.25;10.75;6.00
44933;PMS3003;30667;43.614;1.442;2023-05-07T00:28:21;13.75;11.75;6.75
44933;PMS3003;30667;43.614;1.442;2023-05-07T00:30:46;10.50;9.50;5.50
44933;PMS3003;30667;43.614;1.442;2023-05-07T00:33:11;9.00;9.00;5.00
44933;PMS3003;30667;43.614;1.442;2023-05-07T00:35:37;11.25;10.25;6.00
44933;PMS3003;30667;43.614;1.442;2023-05-07T00:38:02;10.75;10.00;5.50
44933;PMS3003;30667;43.614;1.442;2023-05-07T00:40:28;9.00;9.00;5.00
44933;PMS3003;30667;43.614;1.442;2023-05-07T00:42:53;12.50;10.00;6.00
44933;PMS3003;30667;43.614;1.442;2023-05-07T00:45:21;11.00;9.60;5.40
44933;PMS3003;30667;43.614;1.442;2023-05-07T00:47:51;12.00;9.00;4.40
44933;PMS3003;30667;43.614;1.442;2023-05-07T00:50:16;10.50;9.00;4.25
44933;PMS3003;30667;43.614;1.442;2023-05-07T00:52:44;9.80;9.00;4.20
44933;PMS3003;30667;43.614;1.442;2023-05-07T00:55:09;10.75;10.75;5.75
44933;PMS3003;30667;43.614;1.442;2023-05-07T00:57:36;11.00;9.75;5.50
44933;PMS3003;30667;43.614;1.442;2023-05-07T01:00:06;9.00;9.00;5.20
44933;PMS3003;30667;43.614;1.442;2023-05-07T01:02:37;11.00;10.00;5.00
44933;PMS3003;30667;43.614;1.442;2023-05-07T01:05:03;10.80;9.80;5.20
44933;PMS3003;30667;43.614;1.442;2023-05-07T01:07:31;9.60;9.20;5.00
44933;PMS3003;30667;43.614;1.442;2023-05-07T01:09:57;8.80;8.80;4.80
44933;PMS3003;30667;43.614;1.442;2023-05-07T01:12:23;11.00;11.00;5.00
44933;PMS3003;30667;43.614;1.442;2023-05-07T01:14:49;11.60;11.00;5.40
44933;PMS3003;30667;43.614;1.442;2023-05-07T01:17:15;6.75;6.75;4.00
44933;PMS3003;30667;43.614;1.442;2023-05-07T01:19:41;10.20;10.00;5.00
44933;PMS3003;30667;43.614;1.442;2023-05-07T01:22:08;11.50;10.25;4.00
44933;PMS3003;30667;43.614;1.442;2023-05-07T01:24:36;9.20;8.80;3.60
44933;PMS3003;30667;43.614;1.442;2023-05-07T01:27:02;9.40;7.00;4.00
44933;PMS3003;30667;43.614;1.442;2023-05-07T01:29:28;8.50;7.00;3.50
44933;PMS3003;30667;43.614;1.442;2023-05-07T01:31:53;8.00;6.40;3.80
44933;PMS3003;30667;43.614;1.442;2023-05-07T01:34:21;7.20;6.00;3.00
44933;PMS3003;30667;43.614;1.442;2023-05-07T01:36:49;6.40;6.40;3.80
44933;PMS3003;30667;43.614;1.442;2023-05-07T01:39:14;5.00;5.00;3.00
44933;PMS3003;30667;43.614;1.442;2023-05-07T01:41:41;7.20;6.00;3.00
44933;PMS3003;30667;43.614;1.442;2023-05-07T01:44:08;5.40;5.00;3.20
44933;PMS3003;30667;43.614;1.442;2023-05-07T01:46:37;10.40;6.80;3.20
44933;PMS3003;30667;43.614;1.442;2023-05-07T01:49:02;7.50;6.50;3.00
44933;PMS3003;30667;43.614;1.442;2023-05-07T01:51:28;7.00;7.00;3.00
44933;PMS3003;30667;43.614;1.442;2023-05-07T01:53:54;6.40;5.60;2.20
44933;PMS3003;30667;43.614;1.442;2023-05-07T01:56:20;5.75;5.00;2.75
44933;PMS3003;30667;43.614;1.442;2023-05-07T01:58:46;5.60;4.60;2.00
44933;PMS3003;30667;43.614;1.442;2023-05-07T02:01:13;5.40;4.60;2.00
44933;PMS3003;30667;43.614;1.442;2023-05-07T02:03:39;7.40;6.00;2.00
44933;PMS3003;30667;43.614;1.442;2023-05-07T02:06:04;6.50;5.50;2.00
44933;PMS3003;30667;43.614;1.442;2023-05-07T02:08:30;5.25;5.00;2.00
44933;PMS3003;30667;43.614;1.442;2023-05-07T02:10:56;6.25;5.50;2.50
44933;PMS3003;30667;43.614;1.442;2023-05-07T02:13:21;4.75;4.75;2.00
44933;PMS3003;30667;43.614;1.442;2023-05-07T02:15:47;5.00;4.40;2.00
44933;PMS3003;30667;43.614;1.442;2023-05-07T02:18:15;7.20;5.20;2.00
44933;PMS3003;30667;43.614;1.442;2023-05-07T02:20:42;6.60;6.00;2.40
44933;PMS3003;30667;43.614;1.442;2023-05-07T02:23:07;6.25;5.75;2.75
44933;PMS3003;30667;43.614;1.442;2023-05-07T02:25:33;4.00;4.00;2.00
44933;PMS3003;30667;43.614;1.442;2023-05-07T02:27:58;5.00;5.00;2.00
44933;PMS3003;30667;43.614;1.442;2023-05-07T02:30:24;6.00;5.00;2.25
44933;PMS3003;30667;43.614;1.442;2023-05-07T02:32:50;6.00;5.20;2.20
44933;PMS3003;30667;43.614;1.442;2023-05-07T02:35:16;6.50;5.50;2.50
44933;PMS3003;30667;43.614;1.442;2023-05-07T02:37:41;5.00;5.00;2.00
44933;PMS3003;30667;43.614;1.442;2023-05-07T02:40:07;5.50;5.50;2.25
44933;PMS3003;30667;43.614;1.442;2023-05-07T02:42:33;6.00;5.60;2.40
44933;PMS3003;30667;43.614;1.442;2023-05-07T02:44:58;6.00;5.00;2.00
44933;PMS3003;30667;43.614;1.442;2023-05-07T02:47:24;5.50;4.75;2.25
44933;PMS3003;30667;43.614;1.442;2023-05-07T02:49:51;6.20;5.80;3.00
44933;PMS3003;30667;43.614;1.442;2023-05-07T02:52:17;4.25;4.25;2.00
44933;PMS3003;30667;43.614;1.442;2023-05-07T02:54:42;5.75;5.00;2.00
44933;PMS3003;30667;43.614;1.442;2023-05-07T02:57:08;6.00;4.75;2.00
44933;PMS3003;30667;43.614;1.442;2023-05-07T02:59:33;6.00;4.25;2.00
44933;PMS3003;30667;43.614;1.442;2023-05-07T03:01:58;7.50;5.75;2.00
44933;PMS3003;30667;43.614;1.442;2023-05-07T03:04:24;6.00;6.00;2.00
44933;PMS3003;30667;43.614;1.442;2023-05-07T03:06:49;7.00;5.00;2.00
44933;PMS3003;30667;43.614;1.442;2023-05-07T03:09:14;6.25;5.25;2.00
44933;PMS3003;30667;43.614;1.442;2023-05-07T03:11:40;5.25;5.25;2.25
44933;PMS3003;30667;43.614;1.442;2023-05-07T03:14:05;4.00;4.00;2.00
44933;PMS3003;30667;43.614;1.442;2023-05-07T03:16:30;5.00;4.25;2.00
44933;PMS3003;30667;43.614;1.442;2023-05-07T03:18:56;4.00;4.00;2.00
44933;PMS3003;30667;43.614;1.442;2023-05-07T03:21:21;4.25;4.00;1.00
44933;PMS3003;30667;43.614;1.442;2023-05-07T03:23:47;6.00;6.00;2.00
44933;PMS3003;30667;43.614;1.442;2023-05-07T03:26:12;6.00;5.00;2.25
44933;PMS3003;30667;43.614;1.442;2023-05-07T03:28:37;7.25;5.50;2.00
44933;PMS3003;30667;43.614;1.442;2023-05-07T03:31:03;5.00;5.00;2.00
44933;PMS3003;30667;43.614;1.442;2023-05-07T03:33:28;5.25;4.25;2.00
44933;PMS3003;30667;43.614;1.442;2023-05-07T03:35:53;4.25;4.00;1.75
44933;PMS3003;30667;43.614;1.442;2023-05-07T03:38:19;6.50;5.25;2.00
44933;PMS3003;30667;43.614;1.442;2023-05-07T03:40:44;5.75;5.00;3.00
44933;PMS3003;30667;43.614;1.442;2023-05-07T03:43:10;6.50;5.25;2.00
44933;PMS3003;30667;43.614;1.442;2023-05-07T03:45:35;5.00;4.25;2.00
44933;PMS3003;30667;43.614;1.442;2023-05-07T03:48:01;4.00;4.00;2.00
44933;PMS3003;30667;43.614;1.442;2023-05-07T03:50:26;5.50;5.00;2.00
44933;PMS3003;30667;43.614;1.442;2023-05-07T03:52:51;5.50;5.50;2.00
44933;PMS3003;30667;43.614;1.442;2023-05-07T03:55:17;7.25;6.00;2.00
44933;PMS3003;30667;43.614;1.442;2023-05-07T03:57:42;5.00;5.00;1.75
44933;PMS3003;30667;43.614;1.442;2023-05-07T04:00:08;5.00;5.00;2.25
44933;PMS3003;30667;43.614;1.442;2023-05-07T04:02:34;6.00;5.80;2.00
44933;PMS3003;30667;43.614;1.442;2023-05-07T04:04:59;5.00;5.00;2.00
44933;PMS3003;30667;43.614;1.442;2023-05-07T04:07:25;5.60;4.60;2.00
44933;PMS3003;30667;43.614;1.442;2023-05-07T04:09:50;5.00;5.00;2.00
44933;PMS3003;30667;43.614;1.442;2023-05-07T04:12:16;6.50;5.50;1.25
44933;PMS3003;30667;43.614;1.442;2023-05-07T04:14:41;6.75;6.00;2.75
44933;PMS3003;30667;43.614;1.442;2023-05-07T04:17:07;7.50;5.50;2.50
44933;PMS3003;30667;43.614;1.442;2023-05-07T04:19:34;4.60;4.00;1.00
44933;PMS3003;30667;43.614;1.442;2023-05-07T04:22:00;7.75;5.00;2.50
44933;PMS3003;30667;43.614;1.442;2023-05-07T04:24:25;7.50;6.00;2.00
44933;PMS3003;30667;43.614;1.442;2023-05-07T04:26:51;5.20;5.20;2.00
44933;PMS3003;30667;43.614;1.442;2023-05-07T04:29:17;6.60;5.40;3.00
44933;PMS3003;30667;43.614;1.442;2023-05-07T04:31:43;6.25;6.00;2.00
44933;PMS3003;30667;43.614;1.442;2023-05-07T04:34:11;5.00;4.00;1.80
44933;PMS3003;30667;43.614;1.442;2023-05-07T04:36:37;7.50;5.00;2.00
44933;PMS3003;30667;43.614;1.442;2023-05-07T04:39:03;5.60;4.40;2.00
44933;PMS3003;30667;43.614;1.442;2023-05-07T04:41:29;3.40;3.20;1.00
44933;PMS3003;30667;43.614;1.442;2023-05-07T04:43:54;5.50;4.75;2.00
44933;PMS3003;30667;43.614;1.442;2023-05-07T04:46:20;5.20;4.20;1.40
44933;PMS3003;30667;43.614;1.442;2023-05-07T04:48:45;5.00;4.25;2.00
44933;PMS3003;30667;43.614;1.442;2023-05-07T04:51:11;6.00;4.50;2.00
44933;PMS3003;30667;43.614;1.442;2023-05-07T04:53:37;7.75;5.50;2.00
44933;PMS3003;30667;43.614;1.442;2023-05-07T04:56:02;6.60;4.80;1.00
44933;PMS3003;30667;43.614;1.442;2023-05-07T04:58:28;5.75;4.00;1.00
44933;PMS3003;30667;43.614;1.442;2023-05-07T05:00:56;6.00;5.00;1.00
44933;PMS3003;30667;43.614;1.442;2023-05-07T05:03:22;5.00;4.80;1.40
44933;PMS3003;30667;43.614;1.442;2023-05-07T05:05:48;3.75;3.00;1.00
44933;PMS3003;30667;43.614;1.442;2023-05-07T05:08:14;5.20;4.60;2.00
44933;PMS3003;30667;43.614;1.442;2023-05-07T05:10:40;4.00;4.00;1.75
44933;PMS3003;30667;43.614;1.442;2023-05-07T05:13:06;5.60;5.00;2.00
44933;PMS3003;30667;43.614;1.442;2023-05-07T05:15:33;5.20;5.00;2.00
44933;PMS3003;30667;43.614;1.442;2023-05-07T05:17:58;6.00;6.00;2.00
44933;PMS3003;30667;43.614;1.442;2023-05-07T05:20:23;5.00;5.00;2.00
44933;PMS3003;30667;43.614;1.442;2023-05-07T05:22:49;5.25;5.25;3.00
44933;PMS3003;30667;43.614;1.442;2023-05-07T05:25:14;5.00;5.00;2.00
44933;PMS3003;30667;43.614;1.442;2023-05-07T05:27:40;6.00;5.50;2.00
44933;PMS3003;30667;43.614;1.442;2023-05-07T05:30:05;6.00;5.25;1.50
44933;PMS3003;30667;43.614;1.442;2023-05-07T05:32:31;6.00;5.60;2.00
44933;PMS3003;30667;43.614;1.442;2023-05-07T05:34:57;6.25;5.00;2.00
44933;PMS3003;30667;43.614;1.442;2023-05-07T05:37:22;9.75;6.00;3.00
44933;PMS3003;30667;43.614;1.442;2023-05-07T05:39:48;10.00;7.50;3.00
44933;PMS3003;30667;43.614;1.442;2023-05-07T05:42:13;6.00;5.50;2.25
44933;PMS3003;30667;43.614;1.442;2023-05-07T05:44:38;6.00;6.00;2.25
44933;PMS3003;30667;43.614;1.442;2023-05-07T05:47:04;8.00;6.00;2.00
44933;PMS3003;30667;43.614;1.442;2023-05-07T05:49:29;7.50;6.00;2.75
44933;PMS3003;30667;43.614;1.442;2023-05-07T05:51:55;6.00;5.00;2.25
44933;PMS3003;30667;43.614;1.442;2023-05-07T05:54:20;6.20;5.40;2.40
44933;PMS3003;30667;43.614;1.442;2023-05-07T05:56:46;4.25;4.25;2.00
44933;PMS3003;30667;43.614;1.442;2023-05-07T05:59:11;6.00;5.50;2.25
44933;PMS3003;30667;43.614;1.442;2023-05-07T06:01:37;6.75;5.00;2.00
44933;PMS3003;30667;43.614;1.442;2023-05-07T06:04:03;6.40;5.00;1.40
44933;PMS3003;30667;43.614;1.442;2023-05-07T06:06:29;5.75;5.75;2.50
44933;PMS3003;30667;43.614;1.442;2023-05-07T06:08:54;6.00;6.00;3.00
44933;PMS3003;30667;43.614;1.442;2023-05-07T06:11:19;6.75;5.75;2.00
44933;PMS3003;30667;43.614;1.442;2023-05-07T06:13:45;8.75;7.50;2.00
44933;PMS3003;30667;43.614;1.442;2023-05-07T06:16:10;6.00;4.00;2.00
44933;PMS3003;30667;43.614;1.442;2023-05-07T06:18:36;5.25;4.00;1.75
44933;PMS3003;30667;43.614;1.442;2023-05-07T06:21:01;5.75;5.25;2.00
44933;PMS3003;30667;43.614;1.442;2023-05-07T06:23:27;8.25;4.50;1.50
44933;PMS3003;30667;43.614;1.442;2023-05-07T06:25:52;7.25;5.00;1.00
44933;PMS3003;30667;43.614;1.442;2023-05-07T06:28:18;7.25;6.25;2.75
44933;PMS3003;30667;43.614;1.442;2023-05-07T06:30:43;4.75;4.25;2.00
44933;PMS3003;30667;43.614;1.442;2023-05-07T06:33:09;5.25;5.00;2.00
44933;PMS3003;30667;43.614;1.442;2023-05-07T06:35:34;4.00;4.00;1.75
44933;PMS3003;30667;43.614;1.442;2023-05-07T06:38:00;6.00;5.00;1.00
44933;PMS3003;30667;43.614;1.442;2023-05-07T06:40:25;5.75;5.00;2.00
44933;PMS3003;30667;43.614;1.442;2023-05-07T06:42:51;5.00;5.00;2.00
44933;PMS3003;30667;43.614;1.442;2023-05-07T06:45:16;7.75;5.00;2.00
44933;PMS3003;30667;43.614;1.442;2023-05-07T06:47:42;6.00;4.75;2.00
44933;PMS3003;30667;43.614;1.442;2023-05-07T06:50:07;9.00;6.25;2.75
44933;PMS3003;30667;43.614;1.442;2023-05-07T06:52:34;5.40;4.20;1.40
44933;PMS3003;30667;43.614;1.442;2023-05-07T06:55:00;6.75;6.00;2.00
44933;PMS3003;30667;43.614;1.442;2023-05-07T06:57:25;7.00;4.50;2.00
44933;PMS3003;30667;43.614;1.442;2023-05-07T06:59:51;5.50;5.00;2.25
44933;PMS3003;30667;43.614;1.442;2023-05-07T07:02:16;6.50;6.00;2.00
44933;PMS3003;30667;43.614;1.442;2023-05-07T07:04:42;6.50;5.00;2.00
44933;PMS3003;30667;43.614;1.442;2023-05-07T07:07:07;5.75;5.00;1.50
44933;PMS3003;30667;43.614;1.442;2023-05-07T07:09:32;6.25;4.75;1.25
44933;PMS3003;30667;43.614;1.442;2023-05-07T07:11:58;5.00;5.00;2.50
44933;PMS3003;30667;43.614;1.442;2023-05-07T07:14:23;6.00;4.00;2.00
44933;PMS3003;30667;43.614;1.442;2023-05-07T07:16:49;6.50;6.50;3.00
44933;PMS3003;30667;43.614;1.442;2023-05-07T07:19:14;6.00;5.00;2.00
44933;PMS3003;30667;43.614;1.442;2023-05-07T07:21:42;4.40;4.40;2.00
44933;PMS3003;30667;43.614;1.442;2023-05-07T07:24:08;4.25;4.25;2.00
44933;PMS3003;30667;43.614;1.442;2023-05-07T07:26:33;8.50;6.50;2.00
44933;PMS3003;30667;43.614;1.442;2023-05-07T07:28:58;5.00;5.00;2.00
44933;PMS3003;30667;43.614;1.442;2023-05-07T07:31:24;4.50;4.50;2.00
44933;PMS3003;30667;43.614;1.442;2023-05-07T07:33:49;6.00;6.00;2.00
44933;PMS3003;30667;43.614;1.442;2023-05-07T07:36:15;8.50;6.50;2.00
44933;PMS3003;30667;43.614;1.442;2023-05-07T07:38:40;5.00;4.00;2.00
44933;PMS3003;30667;43.614;1.442;2023-05-07T07:41:07;8.75;7.00;3.00
44933;PMS3003;30667;43.614;1.442;2023-05-07T07:43:33;7.60;5.40;2.00
44933;PMS3003;30667;43.614;1.442;2023-05-07T07:45:58;6.25;5.25;2.00
44933;PMS3003;30667;43.614;1.442;2023-05-07T07:48:24;7.00;6.00;2.50
44933;PMS3003;30667;43.614;1.442;2023-05-07T07:50:49;7.00;5.25;2.25
44933;PMS3003;30667;43.614;1.442;2023-05-07T07:53:18;7.40;5.60;2.00
44933;PMS3003;30667;43.614;1.442;2023-05-07T07:55:44;8.50;5.00;1.00
44933;PMS3003;30667;43.614;1.442;2023-05-07T07:58:09;5.80;4.60;2.00
44933;PMS3003;30667;43.614;1.442;2023-05-07T08:00:35;5.00;5.00;2.00
44933;PMS3003;30667;43.614;1.442;2023-05-07T08:03:01;5.40;5.20;1.40
44933;PMS3003;30667;43.614;1.442;2023-05-07T08:05:28;4.40;4.40;1.60
44933;PMS3003;30667;43.614;1.442;2023-05-07T08:07:53;7.75;6.50;3.00
44933;PMS3003;30667;43.614;1.442;2023-05-07T08:10:19;5.00;5.00;1.75
44933;PMS3003;30667;43.614;1.442;2023-05-07T08:12:48;6.40;5.00;2.00
44933;PMS3003;30667;43.614;1.442;2023-05-07T08:15:14;4.80;4.80;2.00
44933;PMS3003;30667;43.614;1.442;2023-05-07T08:17:40;5.00;4.20;1.00
44933;PMS3003;30667;43.614;1.442;2023-05-07T08:20:06;5.00;4.75;2.00
44933;PMS3003;30667;43.614;1.442;2023-05-07T08:22:33;8.00;5.80;2.60
44933;PMS3003;30667;43.614;1.442;2023-05-07T08:24:59;8.00;6.00;2.80
44933;PMS3003;30667;43.614;1.442;2023-05-07T08:27:25;8.25;6.00;2.00
44933;PMS3003;30667;43.614;1.442;2023-05-07T08:29:50;6.00;5.00;2.00
44933;PMS3003;30667;43.614;1.442;2023-05-07T08:32:16;8.75;7.00;3.00
44933;PMS3003;30667;43.614;1.442;2023-05-07T08:34:41;5.25;4.50;1.75
44933;PMS3003;30667;43.614;1.442;2023-05-07T08:37:07;10.00;6.00;2.75
44933;PMS3003;30667;43.614;1.442;2023-05-07T08:39:32;5.50;5.50;2.75
44933;PMS3003;30667;43.614;1.442;2023-05-07T08:41:57;4.75;4.25;2.00
44933;PMS3003;30667;43.614;1.442;2023-05-07T08:44:27;5.00;4.20;2.00
44933;PMS3003;30667;43.614;1.442;2023-05-07T08:46:56;8.60;6.80;2.40
44933;PMS3003;30667;43.614;1.442;2023-05-07T08:49:23;7.80;5.00;2.00
44933;PMS3003;30667;43.614;1.442;2023-05-07T08:51:48;9.00;6.50;2.00
44933;PMS3003;30667;43.614;1.442;2023-05-07T08:54:17;4.00;4.00;2.00
44933;PMS3003;30667;43.614;1.442;2023-05-07T08:56:44;7.80;6.40;3.00
44933;PMS3003;30667;43.614;1.442;2023-05-07T08:59:10;6.00;5.00;2.00
44933;PMS3003;30667;43.614;1.442;2023-05-07T09:01:35;7.00;5.25;2.00
44933;PMS3003;30667;43.614;1.442;2023-05-07T09:04:01;5.25;5.00;2.00
44933;PMS3003;30667;43.614;1.442;2023-05-07T09:06:26;5.00;5.00;2.00
44933;PMS3003;30667;43.614;1.442;2023-05-07T09:08:52;5.00;4.00;2.50
44933;PMS3003;30667;43.614;1.442;2023-05-07T09:11:23;8.80;5.80;3.00
44933;PMS3003;30667;43.614;1.442;2023-05-07T09:13:56;7.20;6.00;2.00
44933;PMS3003;30667;43.614;1.442;2023-05-07T09:16:24;9.40;6.60;3.00
44933;PMS3003;30667;43.614;1.442;2023-05-07T09:18:51;7.80;6.20;2.00
44933;PMS3003;30667;43.614;1.442;2023-05-07T09:21:18;8.00;5.00;1.80
44933;PMS3003;30667;43.614;1.442;2023-05-07T09:23:44;5.00;5.00;2.00
44933;PMS3003;30667;43.614;1.442;2023-05-07T09:26:09;6.00;4.00;2.00
44933;PMS3003;30667;43.614;1.442;2023-05-07T09:28:40;7.40;7.00;3.00
44933;PMS3003;30667;43.614;1.442;2023-05-07T09:31:06;5.00;5.00;1.60
44933;PMS3003;30667;43.614;1.442;2023-05-07T09:33:36;6.00;5.00;2.00
44933;PMS3003;30667;43.614;1.442;2023-05-07T09:36:02;10.20;6.00;2.00
44933;PMS3003;30667;43.614;1.442;2023-05-07T09:38:32;5.20;4.40;1.40
44933;PMS3003;30667;43.614;1.442;2023-05-07T09:41:02;6.20;5.80;2.00
44933;PMS3003;30667;43.614;1.442;2023-05-07T09:43:32;6.60;5.80;2.40
44933;PMS3003;30667;43.614;1.442;2023-05-07T09:46:03;6.00;5.00;2.00
44933;PMS3003;30667;43.614;1.442;2023-05-07T09:48:32;6.80;5.40;2.00
44933;PMS3003;30667;43.614;1.442;2023-05-07T09:51:03;5.40;5.00;2.00
44933;PMS3003;30667;43.614;1.442;2023-05-07T09:53:36;6.80;6.00;2.00
44933;PMS3003;30667;43.614;1.442;2023-05-07T09:56:04;4.80;4.20;2.00
44933;PMS3003;30667;43.614;1.442;2023-05-07T09:58:30;5.80;5.00;2.00
44933;PMS3003;30667;43.614;1.442;2023-05-07T10:00:57;5.20;4.20;1.00
44933;PMS3003;30667;43.614;1.442;2023-05-07T10:03:23;6.00;5.75;2.00
44933;PMS3003;30667;43.614;1.442;2023-05-07T10:05:52;5.20;5.00;1.80
44933;PMS3003;30667;43.614;1.442;2023-05-07T10:08:18;5.60;5.20;2.20
44933;PMS3003;30667;43.614;1.442;2023-05-07T10:10:44;8.00;5.20;2.00
44933;PMS3003;30667;43.614;1.442;2023-05-07T10:13:10;10.00;6.40;2.40
44933;PMS3003;30667;43.614;1.442;2023-05-07T10:15:37;7.80;6.00;3.00
44933;PMS3003;30667;43.614;1.442;2023-05-07T10:18:03;5.60;5.60;2.60
44933;PMS3003;30667;43.614;1.442;2023-05-07T10:20:31;7.40;5.00;2.00
44933;PMS3003;30667;43.614;1.442;2023-05-07T10:22:58;6.00;4.40;1.40
44933;PMS3003;30667;43.614;1.442;2023-05-07T10:25:31;6.40;6.00;2.00
44933;PMS3003;30667;43.614;1.442;2023-05-07T10:28:06;9.00;7.00;2.00
44933;PMS3003;30667;43.614;1.442;2023-05-07T10:33:27;6.60;5.00;2.40
44933;PMS3003;30667;43.614;1.442;2023-05-07T10:35:55;9.00;8.40;3.00
44933;PMS3003;30667;43.614;1.442;2023-05-07T10:38:24;8.60;7.80;3.00
44933;PMS3003;30667;43.614;1.442;2023-05-07T10:40:51;6.00;5.20;2.00
44933;PMS3003;30667;43.614;1.442;2023-05-07T10:43:17;7.00;5.25;2.50
44933;PMS3003;30667;43.614;1.442;2023-05-07T10:45:43;9.00;6.00;3.00
44933;PMS3003;30667;43.614;1.442;2023-05-07T10:50:41;7.20;6.20;3.00
44933;PMS3003;30667;43.614;1.442;2023-05-07T10:55:43;6.60;6.00;3.00
44933;PMS3003;30667;43.614;1.442;2023-05-07T10:58:28;6.00;5.00;2.00
44933;PMS3003;30667;43.614;1.442;2023-05-07T11:00:57;6.25;6.00;2.00
44933;PMS3003;30667;43.614;1.442;2023-05-07T11:03:24;7.40;6.60;2.40
44933;PMS3003;30667;43.614;1.442;2023-05-07T11:08:52;6.20;5.00;2.40
44933;PMS3003;30667;43.614;1.442;2023-05-07T11:11:17;9.60;7.00;3.00
44933;PMS3003;30667;43.614;1.442;2023-05-07T11:13:47;5.00;5.00;2.00
44933;PMS3003;30667;43.614;1.442;2023-05-07T11:18:48;5.80;5.00;2.00
44933;PMS3003;30667;43.614;1.442;2023-05-07T11:21:33;5.00;5.00;2.00
44933;PMS3003;30667;43.614;1.442;2023-05-07T11:24:06;5.20;5.00;2.00
44933;PMS3003;30667;43.614;1.442;2023-05-07T11:26:45;5.40;5.20;2.00
44933;PMS3003;30667;43.614;1.442;2023-05-07T11:29:22;7.60;6.40;3.00
44933;PMS3003;30667;43.614;1.442;2023-05-07T11:31:51;5.60;5.40;2.80
44933;PMS3003;30667;43.614;1.442;2023-05-07T11:34:24;6.00;4.40;2.00
44933;PMS3003;30667;43.614;1.442;2023-05-07T11:36:51;7.60;6.20;3.20
44933;PMS3003;30667;43.614;1.442;2023-05-07T11:39:30;7.20;7.20;3.00
44933;PMS3003;30667;43.614;1.442;2023-05-07T11:42:00;6.00;5.20;2.00
44933;PMS3003;30667;43.614;1.442;2023-05-07T11:44:42;6.00;6.00;2.20
44933;PMS3003;30667;43.614;1.442;2023-05-07T11:47:09;7.40;6.40;3.00
44933;PMS3003;30667;43.614;1.442;2023-05-07T11:49:35;6.00;5.00;2.00
44933;PMS3003;30667;43.614;1.442;2023-05-07T11:52:01;5.00;5.00;2.00
44933;PMS3003;30667;43.614;1.442;2023-05-07T11:54:26;6.75;5.50;2.00
44933;PMS3003;30667;43.614;1.442;2023-05-07T11:57:00;5.80;5.00;2.20
44933;PMS3003;30667;43.614;1.442;2023-05-07T11:59:26;7.00;5.40;1.80
44933;PMS3003;30667;43.614;1.442;2023-05-07T12:01:51;6.00;5.50;2.75
44933;PMS3003;30667;43.614;1.442;2023-05-07T12:04:19;5.00;4.00;2.00
44933;PMS3003;30667;43.614;1.442;2023-05-07T12:06:45;6.80;5.00;2.20
44933;PMS3003;30667;43.614;1.442;2023-05-07T12:09:11;5.50;4.00;2.00
44933;PMS3003;30667;43.614;1.442;2023-05-07T12:11:36;5.75;5.00;2.00
44933;PMS3003;30667;43.614;1.442;2023-05-07T12:14:04;5.20;4.00;1.00
44933;PMS3003;30667;43.614;1.442;2023-05-07T12:16:30;5.25;5.00;2.00
44933;PMS3003;30667;43.614;1.442;2023-05-07T12:18:56;5.40;5.00;2.20
44933;PMS3003;30667;43.614;1.442;2023-05-07T12:21:23;6.00;5.00;2.00
44933;PMS3003;30667;43.614;1.442;2023-05-07T12:23:50;5.20;4.60;1.00
44933;PMS3003;30667;43.614;1.442;2023-05-07T12:26:15;4.50;4.00;2.00
44933;PMS3003;30667;43.614;1.442;2023-05-07T12:28:41;4.00;4.00;2.00
44933;PMS3003;30667;43.614;1.442;2023-05-07T12:31:07;5.00;4.00;2.00
44933;PMS3003;30667;43.614;1.442;2023-05-07T12:33:33;4.00;3.80;1.00
44933;PMS3003;30667;43.614;1.442;2023-05-07T12:36:02;4.80;4.00;1.40
44933;PMS3003;30667;43.614;1.442;2023-05-07T12:38:34;4.40;3.80;1.00
44933;PMS3003;30667;43.614;1.442;2023-05-07T12:41:00;4.20;3.00;1.00
44933;PMS3003;30667;43.614;1.442;2023-05-07T12:43:26;5.00;4.25;1.00
44933;PMS3003;30667;43.614;1.442;2023-05-07T12:45:54;4.00;3.80;1.20
44933;PMS3003;30667;43.614;1.442;2023-05-07T12:48:22;4.20;4.20;2.00
44933;PMS3003;30667;43.614;1.442;2023-05-07T12:50:52;4.00;4.00;1.20
44933;PMS3003;30667;43.614;1.442;2023-05-07T12:53:19;5.00;4.00;2.00
44933;PMS3003;30667;43.614;1.442;2023-05-07T12:55:50;5.00;4.00;1.00
44933;PMS3003;30667;43.614;1.442;2023-05-07T12:58:17;5.20;3.80;1.40
44933;PMS3003;30667;43.614;1.442;2023-05-07T13:00:48;5.20;4.60;1.00
44933;PMS3003;30667;43.614;1.442;2023-05-07T13:03:21;5.20;4.40;1.00
44933;PMS3003;30667;43.614;1.442;2023-05-07T13:05:58;4.00;3.00;1.00
44933;PMS3003;30667;43.614;1.442;2023-05-07T13:10:50;4.00;3.50;2.00
44933;PMS3003;30667;43.614;1.442;2023-05-07T13:13:16;4.00;4.00;1.00
44933;PMS3003;30667;43.614;1.442;2023-05-07T13:15:41;4.25;3.00;1.00
44933;PMS3003;30667;43.614;1.442;2023-05-07T13:18:06;3.75;3.75;1.00
44933;PMS3003;30667;43.614;1.442;2023-05-07T13:20:32;5.00;4.25;1.75
44933;PMS3003;30667;43.614;1.442;2023-05-07T13:22:57;4.00;3.00;1.00
44933;PMS3003;30667;43.614;1.442;2023-05-07T13:25:23;4.00;4.00;1.00
44933;PMS3003;30667;43.614;1.442;2023-05-07T13:27:48;5.00;3.25;1.00
44933;PMS3003;30667;43.614;1.442;2023-05-07T13:30:13;6.00;4.25;1.00
44933;PMS3003;30667;43.614;1.442;2023-05-07T13:32:39;5.00;3.50;0.75
44933;PMS3003;30667;43.614;1.442;2023-05-07T13:35:04;4.50;3.50;1.00
44933;PMS3003;30667;43.614;1.442;2023-05-07T13:37:30;4.00;3.20;1.40
44933;PMS3003;30667;43.614;1.442;2023-05-07T13:39:55;5.75;4.00;1.00
44933;PMS3003;30667;43.614;1.442;2023-05-07T13:42:21;5.50;4.00;1.00
44933;PMS3003;30667;43.614;1.442;2023-05-07T13:44:46;4.00;4.00;2.00
44933;PMS3003;30667;43.614;1.442;2023-05-07T13:47:11;5.00;4.50;1.25
44933;PMS3003;30667;43.614;1.442;2023-05-07T13:49:37;4.75;4.75;2.00
44933;PMS3003;30667;43.614;1.442;2023-05-07T13:52:03;5.25;4.00;1.00
44933;PMS3003;30667;43.614;1.442;2023-05-07T13:54:28;4.20;3.20;0.80
44933;PMS3003;30667;43.614;1.442;2023-05-07T13:56:54;5.00;4.25;1.75
44933;PMS3003;30667;43.614;1.442;2023-05-07T13:59:19;5.00;4.00;1.75
44933;PMS3003;30667;43.614;1.442;2023-05-07T14:01:44;4.00;4.00;1.75
44933;PMS3003;30667;43.614;1.442;2023-05-07T14:04:10;3.50;3.00;1.00
44933;PMS3003;30667;43.614;1.442;2023-05-07T14:06:36;5.40;4.60;1.60
44933;PMS3003;30667;43.614;1.442;2023-05-07T14:09:01;7.00;5.00;2.00
44933;PMS3003;30667;43.614;1.442;2023-05-07T14:11:26;4.50;4.00;1.00
44933;PMS3003;30667;43.614;1.442;2023-05-07T14:13:52;4.50;3.50;1.75
44933;PMS3003;30667;43.614;1.442;2023-05-07T14:16:17;4.00;4.00;1.00
44933;PMS3003;30667;43.614;1.442;2023-05-07T14:18:42;4.00;4.00;1.00
44933;PMS3003;30667;43.614;1.442;2023-05-07T14:21:08;4.25;3.25;1.75
44933;PMS3003;30667;43.614;1.442;2023-05-07T14:23:34;5.80;4.40;1.00
44933;PMS3003;30667;43.614;1.442;2023-05-07T14:26:00;4.00;3.50;1.25
44933;PMS3003;30667;43.614;1.442;2023-05-07T14:28:25;3.50;3.00;1.00
44933;PMS3003;30667;43.614;1.442;2023-05-07T14:30:51;4.00;3.25;1.50
44933;PMS3003;30667;43.614;1.442;2023-05-07T14:33:16;5.75;4.00;1.00